N8244L EDDL-EDDW
Flight info
| Callsign | N8244L |
|---|---|
| Flight time | 0h 49m |
| Altitude | 23000 |
| Route | MEVEL4H MEVEL Y850 PIXUR PIXUR3P |
| Aircraft | STAR/L-SDFHRWY/S |
Departure
| Time | 2026-05-04 18:35 |
|---|---|
| Airport | Düsseldorf Airport (EDDL) |
Arrival
| Time | 2026-05-04 19:24 |
|---|---|
| Airport | Bremen Airport (EDDW) |
| Time | Latitude | Longitude | Altitude | Speed | Heading |
|---|---|---|---|---|---|
| 2026-05-04 18:11 | 51.27615 | 6.75277 | 115 ft | 0 kts | 242° |
| 2026-05-04 18:26 | 51.27604 | 6.75243 | 115 ft | 9 kts | 251° |
| 2026-05-04 18:27 | 51.27647 | 6.75183 | 116 ft | 16 kts | 3° |
| 2026-05-04 18:27 | 51.27735 | 6.75203 | 115 ft | 11 kts | 24° |
| 2026-05-04 18:27 | 51.27797 | 6.75325 | 120 ft | 17 kts | 52° |
| 2026-05-04 18:27 | 51.27877 | 6.75494 | 121 ft | 21 kts | 52° |
| 2026-05-04 18:28 | 51.27947 | 6.75639 | 125 ft | 8 kts | 52° |
| 2026-05-04 18:28 | 51.27998 | 6.75745 | 125 ft | 16 kts | 53° |
| 2026-05-04 18:28 | 51.28081 | 6.75918 | 125 ft | 25 kts | 52° |
| 2026-05-04 18:28 | 51.28213 | 6.76199 | 122 ft | 36 kts | 54° |
| 2026-05-04 18:29 | 51.28380 | 6.76547 | 121 ft | 41 kts | 53° |
| 2026-05-04 18:29 | 51.28522 | 6.76844 | 123 ft | 26 kts | 53° |
| 2026-05-04 18:29 | 51.28600 | 6.77008 | 125 ft | 17 kts | 51° |
| 2026-05-04 18:29 | 51.28690 | 6.77195 | 124 ft | 25 kts | 52° |
| 2026-05-04 18:30 | 51.28938 | 6.77715 | 123 ft | 29 kts | 52° |
| 2026-05-04 18:30 | 51.29048 | 6.77950 | 122 ft | 24 kts | 53° |
| 2026-05-04 18:30 | 51.29139 | 6.78141 | 127 ft | 16 kts | 52° |
| 2026-05-04 18:31 | 51.29212 | 6.78215 | 132 ft | 10 kts | 1° |
| 2026-05-04 18:31 | 51.29257 | 6.78192 | 133 ft | 0 kts | 322° |
| 2026-05-04 18:32 | 51.29261 | 6.78186 | 133 ft | 6 kts | 322° |
| 2026-05-04 18:32 | 51.29325 | 6.78107 | 136 ft | 8 kts | 315° |
| 2026-05-04 18:32 | 51.29328 | 6.78069 | 135 ft | 7 kts | 240° |
| 2026-05-04 18:32 | 51.29325 | 6.78062 | 135 ft | 0 kts | 232° |
| 2026-05-04 18:33 | 51.29319 | 6.78049 | 135 ft | 9 kts | 232° |
| 2026-05-04 18:34 | 51.29188 | 6.77774 | 128 ft | 54 kts | 232° |
| 2026-05-04 18:34 | 51.28866 | 6.77101 | 128 ft | 96 kts | 229° |
| 2026-05-04 18:34 | 51.28372 | 6.76092 | 280 ft | 135 kts | 230° |
| 2026-05-04 18:34 | 51.27744 | 6.74805 | 747 ft | 155 kts | 229° |
| 2026-05-04 18:35 | 51.27060 | 6.73387 | 1319 ft | 170 kts | 232° |
| 2026-05-04 18:35 | 51.26748 | 6.71426 | 1556 ft | 203 kts | 274° |
| 2026-05-04 18:35 | 51.27437 | 6.69446 | 2143 ft | 211 kts | 318° |
| 2026-05-04 18:35 | 51.28769 | 6.68522 | 2815 ft | 216 kts | 351° |
| 2026-05-04 18:36 | 51.30260 | 6.68618 | 3567 ft | 214 kts | 5° |
| 2026-05-04 18:36 | 51.31755 | 6.68833 | 4178 ft | 218 kts | 4° |
| 2026-05-04 18:36 | 51.33274 | 6.69003 | 4803 ft | 220 kts | 3° |
| 2026-05-04 18:36 | 51.34811 | 6.69157 | 5419 ft | 222 kts | 3° |
| 2026-05-04 18:37 | 51.36358 | 6.69317 | 6027 ft | 224 kts | 3° |
| 2026-05-04 18:37 | 51.37921 | 6.69481 | 6632 ft | 226 kts | 3° |
| 2026-05-04 18:37 | 51.39494 | 6.69543 | 7216 ft | 226 kts | 359° |
| 2026-05-04 18:37 | 51.41072 | 6.69539 | 7825 ft | 227 kts | 1° |
| 2026-05-04 18:38 | 51.42660 | 6.69571 | 8413 ft | 229 kts | 1° |
| 2026-05-04 18:38 | 51.44259 | 6.69582 | 8990 ft | 230 kts | 1° |
| 2026-05-04 18:38 | 51.45860 | 6.69583 | 9593 ft | 231 kts | 1° |
| 2026-05-04 18:38 | 51.47467 | 6.69585 | 10154 ft | 231 kts | 1° |
| 2026-05-04 18:39 | 51.49091 | 6.69590 | 10663 ft | 234 kts | 1° |
| 2026-05-04 18:39 | 51.50726 | 6.69595 | 11167 ft | 236 kts | 1° |
| 2026-05-04 18:39 | 51.52380 | 6.69600 | 11675 ft | 238 kts | 1° |
| 2026-05-04 18:39 | 51.54027 | 6.69604 | 12176 ft | 241 kts | 1° |
| 2026-05-04 18:40 | 51.55710 | 6.69609 | 12670 ft | 243 kts | 1° |
| 2026-05-04 18:40 | 51.57413 | 6.69614 | 13151 ft | 246 kts | 1° |
| 2026-05-04 18:40 | 51.59128 | 6.69618 | 13634 ft | 247 kts | 1° |
| 2026-05-04 18:40 | 51.60851 | 6.69765 | 13995 ft | 248 kts | 14° |
| 2026-05-04 18:41 | 51.62405 | 6.70943 | 14311 ft | 248 kts | 38° |
| 2026-05-04 18:41 | 51.63562 | 6.72966 | 14661 ft | 247 kts | 53° |
| 2026-05-04 18:41 | 51.64602 | 6.75171 | 15005 ft | 247 kts | 52° |
| 2026-05-04 18:41 | 51.65748 | 6.77229 | 15303 ft | 249 kts | 50° |
| 2026-05-04 18:42 | 51.66446 | 6.78733 | 15347 ft | 257 kts | 56° |
| 2026-05-04 18:42 | 51.67457 | 6.81140 | 15642 ft | 261 kts | 58° |
| 2026-05-04 18:42 | 51.68444 | 6.83602 | 15999 ft | 262 kts | 59° |
| 2026-05-04 18:42 | 51.69528 | 6.85986 | 16347 ft | 264 kts | 53° |
| 2026-05-04 18:43 | 51.70643 | 6.88349 | 16681 ft | 266 kts | 56° |
| 2026-05-04 18:43 | 51.71727 | 6.90778 | 17002 ft | 267 kts | 56° |
| 2026-05-04 18:43 | 51.72842 | 6.93191 | 17309 ft | 269 kts | 55° |
| 2026-05-04 18:43 | 51.73960 | 6.95626 | 17604 ft | 270 kts | 56° |
| 2026-05-04 18:44 | 51.75073 | 6.98078 | 17890 ft | 272 kts | 56° |
| 2026-05-04 18:44 | 51.75819 | 6.99709 | 18068 ft | 273 kts | 56° |
| 2026-05-04 18:44 | 51.77333 | 7.03023 | 18391 ft | 275 kts | 56° |
| 2026-05-04 18:44 | 51.78468 | 7.05519 | 18600 ft | 276 kts | 56° |
| 2026-05-04 18:45 | 51.79612 | 7.08029 | 18793 ft | 278 kts | 56° |
| 2026-05-04 18:45 | 51.80761 | 7.10553 | 18984 ft | 279 kts | 56° |
| 2026-05-04 18:45 | 51.81895 | 7.13052 | 19166 ft | 280 kts | 56° |
| 2026-05-04 18:45 | 51.83067 | 7.15632 | 19365 ft | 281 kts | 56° |
| 2026-05-04 18:46 | 51.84208 | 7.18149 | 19570 ft | 282 kts | 56° |
| 2026-05-04 18:46 | 51.85379 | 7.20703 | 19758 ft | 283 kts | 54° |
| 2026-05-04 18:46 | 51.86694 | 7.23089 | 19929 ft | 285 kts | 46° |
| 2026-05-04 18:46 | 51.88120 | 7.25331 | 20086 ft | 286 kts | 47° |
| 2026-05-04 18:47 | 51.89476 | 7.27698 | 20238 ft | 287 kts | 49° |
| 2026-05-04 18:47 | 51.90867 | 7.30040 | 20399 ft | 288 kts | 47° |
| 2026-05-04 18:47 | 51.92262 | 7.32379 | 20541 ft | 289 kts | 48° |
| 2026-05-04 18:47 | 51.93650 | 7.34756 | 20620 ft | 293 kts | 47° |
| 2026-05-04 18:48 | 51.95070 | 7.37150 | 20698 ft | 295 kts | 47° |
| 2026-05-04 18:48 | 51.96492 | 7.39562 | 20827 ft | 296 kts | 47° |
| 2026-05-04 18:48 | 51.97913 | 7.41980 | 21027 ft | 295 kts | 47° |
| 2026-05-04 18:48 | 51.99323 | 7.44373 | 21278 ft | 292 kts | 47° |
| 2026-05-04 18:49 | 52.00699 | 7.46714 | 21539 ft | 289 kts | 47° |
| 2026-05-04 18:49 | 52.02086 | 7.49075 | 21801 ft | 287 kts | 47° |
| 2026-05-04 18:49 | 52.03460 | 7.51417 | 22066 ft | 286 kts | 47° |
| 2026-05-04 18:49 | 52.04830 | 7.53752 | 22340 ft | 285 kts | 47° |
| 2026-05-04 18:50 | 52.06192 | 7.56078 | 22608 ft | 284 kts | 47° |
| 2026-05-04 18:50 | 52.07550 | 7.58400 | 22880 ft | 283 kts | 47° |
| 2026-05-04 18:50 | 52.08905 | 7.60716 | 23153 ft | 282 kts | 47° |
| 2026-05-04 18:50 | 52.10254 | 7.63034 | 23430 ft | 282 kts | 47° |
| 2026-05-04 18:51 | 52.11623 | 7.65322 | 23678 ft | 281 kts | 47° |
| 2026-05-04 18:51 | 52.12982 | 7.67620 | 23822 ft | 284 kts | 47° |
| 2026-05-04 18:51 | 52.14345 | 7.69937 | 23893 ft | 289 kts | 47° |
| 2026-05-04 18:51 | 52.15757 | 7.72321 | 23929 ft | 295 kts | 47° |
| 2026-05-04 18:52 | 52.17189 | 7.74751 | 23948 ft | 300 kts | 47° |
| 2026-05-04 18:52 | 52.18643 | 7.77220 | 23956 ft | 304 kts | 47° |
| 2026-05-04 18:52 | 52.20113 | 7.79715 | 23960 ft | 307 kts | 47° |
| 2026-05-04 18:52 | 52.21598 | 7.82242 | 23962 ft | 310 kts | 47° |
| 2026-05-04 18:53 | 52.23095 | 7.84790 | 23960 ft | 312 kts | 47° |
| 2026-05-04 18:53 | 52.24598 | 7.87350 | 23962 ft | 313 kts | 47° |
| 2026-05-04 18:53 | 52.26103 | 7.89919 | 23975 ft | 314 kts | 47° |
| 2026-05-04 18:53 | 52.27613 | 7.92497 | 23968 ft | 314 kts | 47° |
| 2026-05-04 18:54 | 52.29123 | 7.95084 | 23961 ft | 314 kts | 47° |
| 2026-05-04 18:54 | 52.30637 | 7.97668 | 23962 ft | 314 kts | 47° |
| 2026-05-04 18:54 | 52.32147 | 8.00256 | 23964 ft | 315 kts | 47° |
| 2026-05-04 18:54 | 52.33657 | 8.02848 | 23963 ft | 315 kts | 47° |
| 2026-05-04 18:55 | 52.35170 | 8.05444 | 23961 ft | 315 kts | 47° |
| 2026-05-04 18:55 | 52.38192 | 8.10640 | 23878 ft | 318 kts | 47° |
| 2026-05-04 18:55 | 52.39738 | 8.13303 | 23644 ft | 326 kts | 47° |
| 2026-05-04 18:56 | 52.41312 | 8.16017 | 23389 ft | 331 kts | 47° |
| 2026-05-04 18:56 | 52.42884 | 8.18731 | 23116 ft | 334 kts | 47° |
| 2026-05-04 18:56 | 52.44490 | 8.21506 | 22843 ft | 336 kts | 47° |
| 2026-05-04 18:56 | 52.46101 | 8.24292 | 22572 ft | 337 kts | 47° |
| 2026-05-04 18:57 | 52.47715 | 8.27089 | 22327 ft | 337 kts | 47° |
| 2026-05-04 18:57 | 52.49337 | 8.29905 | 21866 ft | 342 kts | 47° |
| 2026-05-04 18:57 | 52.50980 | 8.32752 | 21345 ft | 345 kts | 46° |
| 2026-05-04 18:57 | 52.52629 | 8.35620 | 20832 ft | 346 kts | 46° |
| 2026-05-04 18:58 | 52.54280 | 8.38492 | 20327 ft | 346 kts | 46° |
| 2026-05-04 18:58 | 52.55930 | 8.41363 | 19828 ft | 345 kts | 46° |
| 2026-05-04 18:58 | 52.57565 | 8.44236 | 19341 ft | 343 kts | 46° |
| 2026-05-04 18:58 | 52.59198 | 8.47090 | 18862 ft | 341 kts | 46° |
| 2026-05-04 18:59 | 52.60796 | 8.49895 | 18395 ft | 339 kts | 46° |
| 2026-05-04 18:59 | 52.62405 | 8.52720 | 17877 ft | 337 kts | 46° |
| 2026-05-04 18:59 | 52.64011 | 8.55534 | 17328 ft | 337 kts | 47° |
| 2026-05-04 18:59 | 52.65606 | 8.58357 | 16806 ft | 337 kts | 47° |
| 2026-05-04 19:00 | 52.67206 | 8.61172 | 16283 ft | 336 kts | 46° |
| 2026-05-04 19:00 | 52.68798 | 8.63978 | 15781 ft | 335 kts | 46° |
| 2026-05-04 19:00 | 52.70383 | 8.66786 | 15287 ft | 334 kts | 46° |
| 2026-05-04 19:00 | 52.71966 | 8.69575 | 14795 ft | 333 kts | 46° |
| 2026-05-04 19:01 | 52.73713 | 8.72027 | 14319 ft | 329 kts | 28° |
| 2026-05-04 19:01 | 52.75849 | 8.73237 | 13849 ft | 324 kts | 6° |
| 2026-05-04 19:01 | 52.78071 | 8.73012 | 13322 ft | 319 kts | 342° |
| 2026-05-04 19:01 | 52.80075 | 8.71517 | 12795 ft | 315 kts | 328° |
| 2026-05-04 19:02 | 52.81940 | 8.69628 | 12280 ft | 314 kts | 325° |
| 2026-05-04 19:02 | 52.83767 | 8.67650 | 11770 ft | 313 kts | 324° |
| 2026-05-04 19:02 | 52.85523 | 8.65560 | 11272 ft | 307 kts | 315° |
| 2026-05-04 19:02 | 52.86916 | 8.62942 | 10779 ft | 299 kts | 306° |
| 2026-05-04 19:03 | 52.88169 | 8.60241 | 10297 ft | 289 kts | 304° |
| 2026-05-04 19:03 | 52.89329 | 8.57634 | 9809 ft | 275 kts | 304° |
| 2026-05-04 19:03 | 52.90442 | 8.55086 | 9278 ft | 273 kts | 303° |
| 2026-05-04 19:03 | 52.91534 | 8.52564 | 8761 ft | 273 kts | 303° |
| 2026-05-04 19:04 | 52.92636 | 8.50002 | 8246 ft | 271 kts | 303° |
| 2026-05-04 19:04 | 52.93722 | 8.47466 | 7739 ft | 268 kts | 303° |
| 2026-05-04 19:04 | 52.94792 | 8.44955 | 7233 ft | 265 kts | 303° |
| 2026-05-04 19:04 | 52.95853 | 8.42461 | 6744 ft | 263 kts | 304° |
| 2026-05-04 19:05 | 52.97181 | 8.40409 | 6251 ft | 264 kts | 326° |
| 2026-05-04 19:05 | 52.98827 | 8.39084 | 5733 ft | 264 kts | 343° |
| 2026-05-04 19:05 | 53.00660 | 8.39016 | 5225 ft | 267 kts | 11° |
| 2026-05-04 19:05 | 53.02341 | 8.40333 | 4514 ft | 267 kts | 38° |
| 2026-05-04 19:06 | 53.03418 | 8.42699 | 4107 ft | 249 kts | 68° |
| 2026-05-04 19:06 | 53.03823 | 8.45388 | 3804 ft | 232 kts | 81° |
| 2026-05-04 19:06 | 53.04014 | 8.47992 | 3506 ft | 223 kts | 89° |
| 2026-05-04 19:06 | 53.04021 | 8.50517 | 3220 ft | 214 kts | 91° |
| 2026-05-04 19:07 | 53.04077 | 8.52947 | 2929 ft | 207 kts | 88° |
| 2026-05-04 19:07 | 53.04156 | 8.55290 | 2663 ft | 200 kts | 88° |
| 2026-05-04 19:07 | 53.04203 | 8.57531 | 2405 ft | 194 kts | 89° |
| 2026-05-04 19:07 | 53.04244 | 8.59745 | 2146 ft | 189 kts | 88° |
| 2026-05-04 19:08 | 53.04297 | 8.61906 | 1896 ft | 186 kts | 86° |
| 2026-05-04 19:08 | 53.04352 | 8.64050 | 1639 ft | 186 kts | 86° |
| 2026-05-04 19:08 | 53.04399 | 8.66194 | 1389 ft | 185 kts | 85° |
| 2026-05-04 19:08 | 53.04447 | 8.68328 | 1144 ft | 184 kts | 85° |
| 2026-05-04 19:09 | 53.04499 | 8.70456 | 904 ft | 184 kts | 85° |
| 2026-05-04 19:09 | 53.04551 | 8.72593 | 643 ft | 186 kts | 86° |
| 2026-05-04 19:09 | 53.04596 | 8.74744 | 405 ft | 187 kts | 86° |
| 2026-05-04 19:09 | 53.04649 | 8.76921 | 132 ft | 188 kts | 85° |
| 2026-05-04 19:10 | 53.04703 | 8.79159 | 29 ft | 209 kts | 85° |
| 2026-05-04 19:10 | 53.04747 | 8.81633 | 594 ft | 209 kts | 86° |
| 2026-05-04 19:10 | 53.04803 | 8.83978 | 1415 ft | 200 kts | 85° |
| 2026-05-04 19:10 | 53.04846 | 8.86325 | 1942 ft | 207 kts | 87° |
| 2026-05-04 19:11 | 53.04906 | 8.88775 | 2385 ft | 216 kts | 87° |
| 2026-05-04 19:11 | 53.04983 | 8.91299 | 2864 ft | 220 kts | 89° |
| 2026-05-04 19:11 | 53.04607 | 8.93852 | 2929 ft | 239 kts | 120° |
| 2026-05-04 19:11 | 53.03435 | 8.95841 | 2961 ft | 246 kts | 150° |
| 2026-05-04 19:12 | 53.01793 | 8.96622 | 2977 ft | 249 kts | 180° |
| 2026-05-04 19:12 | 52.98959 | 8.94123 | 2987 ft | 231 kts | 233° |
| 2026-05-04 19:12 | 52.97919 | 8.92159 | 2990 ft | 223 kts | 226° |
| 2026-05-04 19:13 | 52.96840 | 8.90361 | 2989 ft | 217 kts | 224° |
| 2026-05-04 19:13 | 52.95768 | 8.88632 | 2992 ft | 212 kts | 224° |
| 2026-05-04 19:13 | 52.94727 | 8.86974 | 2991 ft | 208 kts | 224° |
| 2026-05-04 19:13 | 52.93690 | 8.85328 | 2990 ft | 205 kts | 224° |
| 2026-05-04 19:14 | 52.92682 | 8.83695 | 2987 ft | 200 kts | 229° |
| 2026-05-04 19:14 | 52.92147 | 8.81538 | 2990 ft | 214 kts | 263° |
| 2026-05-04 19:14 | 52.92128 | 8.78987 | 2991 ft | 228 kts | 271° |
| 2026-05-04 19:14 | 52.92205 | 8.76303 | 2987 ft | 238 kts | 272° |
| 2026-05-04 19:15 | 52.92314 | 8.73537 | 2990 ft | 242 kts | 273° |
| 2026-05-04 19:15 | 52.92438 | 8.70746 | 2990 ft | 244 kts | 273° |
| 2026-05-04 19:15 | 52.92567 | 8.67940 | 2989 ft | 245 kts | 273° |
| 2026-05-04 19:15 | 52.92736 | 8.65136 | 2988 ft | 245 kts | 278° |
| 2026-05-04 19:16 | 52.93075 | 8.62370 | 2992 ft | 245 kts | 282° |
| 2026-05-04 19:16 | 52.93470 | 8.59607 | 2990 ft | 246 kts | 283° |
| 2026-05-04 19:16 | 52.93890 | 8.56853 | 2985 ft | 246 kts | 283° |
| 2026-05-04 19:16 | 52.94321 | 8.54097 | 2985 ft | 247 kts | 283° |
| 2026-05-04 19:17 | 52.94756 | 8.51339 | 2984 ft | 247 kts | 283° |
| 2026-05-04 19:17 | 52.95194 | 8.48588 | 2988 ft | 246 kts | 283° |
| 2026-05-04 19:17 | 52.95622 | 8.45891 | 2987 ft | 244 kts | 283° |
| 2026-05-04 19:17 | 52.96053 | 8.43174 | 2977 ft | 243 kts | 283° |
| 2026-05-04 19:18 | 52.96482 | 8.40460 | 2977 ft | 243 kts | 284° |
| 2026-05-04 19:18 | 52.96968 | 8.37777 | 2978 ft | 243 kts | 293° |
| 2026-05-04 19:18 | 52.98039 | 8.35631 | 2977 ft | 246 kts | 324° |
| 2026-05-04 19:18 | 52.99635 | 8.34655 | 2978 ft | 249 kts | 354° |
| 2026-05-04 19:19 | 53.01329 | 8.35106 | 2975 ft | 249 kts | 24° |
| 2026-05-04 19:19 | 53.02692 | 8.36834 | 2977 ft | 248 kts | 47° |
| 2026-05-04 19:19 | 53.03751 | 8.39081 | 2977 ft | 246 kts | 63° |
| 2026-05-04 19:19 | 53.04135 | 8.41823 | 2978 ft | 245 kts | 89° |
| 2026-05-04 19:20 | 53.04097 | 8.44617 | 2986 ft | 245 kts | 94° |
| 2026-05-04 19:20 | 53.03984 | 8.47444 | 2987 ft | 246 kts | 95° |
| 2026-05-04 19:20 | 53.03951 | 8.50264 | 2988 ft | 241 kts | 89° |
| 2026-05-04 19:20 | 53.04045 | 8.53013 | 2953 ft | 237 kts | 86° |
| 2026-05-04 19:21 | 53.04164 | 8.55702 | 2609 ft | 227 kts | 87° |
| 2026-05-04 19:21 | 53.04221 | 8.58257 | 2309 ft | 217 kts | 89° |
| 2026-05-04 19:21 | 53.04260 | 8.60733 | 2026 ft | 211 kts | 87° |
| 2026-05-04 19:21 | 53.04322 | 8.63138 | 1744 ft | 206 kts | 86° |
| 2026-05-04 19:22 | 53.04386 | 8.65464 | 1471 ft | 198 kts | 86° |
| 2026-05-04 19:22 | 53.04436 | 8.67713 | 1216 ft | 191 kts | 86° |
| 2026-05-04 19:22 | 53.04478 | 8.69864 | 965 ft | 181 kts | 85° |
| 2026-05-04 19:22 | 53.04519 | 8.71754 | 736 ft | 147 kts | 84° |
| 2026-05-04 19:23 | 53.04555 | 8.73282 | 554 ft | 120 kts | 84° |
| 2026-05-04 19:23 | 53.04596 | 8.74601 | 391 ft | 111 kts | 84° |
| 2026-05-04 19:23 | 53.04627 | 8.75870 | 252 ft | 109 kts | 84° |
| 2026-05-04 19:23 | 53.04654 | 8.77119 | 95 ft | 105 kts | 84° |
| 2026-05-04 19:24 | 53.04678 | 8.78232 | 19 ft | 88 kts | 83° |
| 2026-05-04 19:24 | 53.04695 | 8.79106 | 16 ft | 52 kts | 88° |
| 2026-05-04 19:24 | 53.04748 | 8.79293 | 15 ft | 17 kts | 14° |
| 2026-05-04 19:24 | 53.04809 | 8.79292 | 16 ft | 2 kts | 357° |
| 2026-05-04 19:25 | 53.04817 | 8.79292 | 16 ft | 0 kts | 357° |
| 2026-05-04 19:25 | 53.04850 | 8.79287 | 17 ft | 7 kts | 340° |
| 2026-05-04 19:26 | 53.04862 | 8.79220 | 17 ft | 7 kts | 266° |
| 2026-05-04 19:26 | 53.04861 | 8.79087 | 14 ft | 19 kts | 270° |
| 2026-05-04 19:26 | 53.04854 | 8.78851 | 12 ft | 14 kts | 267° |
| 2026-05-04 19:26 | 53.04849 | 8.78642 | 14 ft | 22 kts | 268° |
| 2026-05-04 19:27 | 53.04852 | 8.78453 | 13 ft | 8 kts | 276° |
| 2026-05-04 19:27 | 53.04894 | 8.78332 | 16 ft | 18 kts | 315° |
| 2026-05-04 19:27 | 53.04975 | 8.78202 | 17 ft | 9 kts | 319° |
| 2026-05-04 19:27 | 53.05008 | 8.78146 | 17 ft | 3 kts | 295° |
| 2026-05-04 19:28 | 53.05019 | 8.78134 | 17 ft | 0 kts | 14° |
| 2026-05-04 19:28 | 53.05023 | 8.78139 | 17 ft | 0 kts | 45° |